createdAt,value
2023-04-08T00:00:18.847Z,100755.84
2023-04-08T00:02:52.444Z,100758.79
2023-04-08T00:05:05.358Z,100761.35
2023-04-08T00:07:18.117Z,100755.45
2023-04-08T00:09:30.987Z,100762.73
2023-04-08T00:11:44.184Z,100762.86
2023-04-08T00:13:56.742Z,100769.73
2023-04-08T00:16:10.107Z,100775.22
2023-04-08T00:18:23.212Z,100781.45
2023-04-08T00:20:35.912Z,100779.38
2023-04-08T00:22:48.557Z,100785.38
2023-04-08T00:25:01.779Z,100781.72
2023-04-08T00:27:15.028Z,100784.59
2023-04-08T00:29:27.781Z,100780.58
2023-04-08T00:31:40.469Z,100778.95
2023-04-08T00:33:53.362Z,100784.16
2023-04-08T00:36:06.634Z,100785.11
2023-04-08T00:38:19.684Z,100784.17
2023-04-08T00:40:32.609Z,100790.19
2023-04-08T00:42:45.769Z,100790.39
2023-04-08T00:44:58.690Z,100791.14
2023-04-08T00:47:15.568Z,100790.54
2023-04-08T00:49:31.218Z,100796.56
2023-04-08T00:51:44.635Z,100799.00
2023-04-08T00:53:58.083Z,100796.66
2023-04-08T00:56:11.148Z,100795.96
2023-04-08T00:58:24.069Z,100793.77
2023-04-08T01:00:39.977Z,100795.93
2023-04-08T01:03:03.374Z,100798.13
2023-04-08T01:05:27.131Z,100803.94
2023-04-08T01:07:44.841Z,100814.79
2023-04-08T01:10:01.069Z,100818.40
2023-04-08T01:12:16.206Z,100816.50
2023-04-08T01:14:32.049Z,100818.23
2023-04-08T01:16:47.235Z,100816.64
2023-04-08T01:19:00.758Z,100822.63
2023-04-08T01:21:15.008Z,100830.54
2023-04-08T01:23:36.922Z,100833.76
2023-04-08T01:25:53.347Z,100834.35
2023-04-08T01:28:08.582Z,100834.86
2023-04-08T01:30:24.091Z,100840.81
2023-04-08T01:32:38.577Z,100839.67
2023-04-08T01:34:52.220Z,100846.79
2023-04-08T01:37:05.698Z,100852.77
2023-04-08T01:39:22.633Z,100854.36
2023-04-08T01:41:37.511Z,100862.41
2023-04-08T01:43:50.752Z,100870.83
2023-04-08T01:46:05.026Z,100877.81
2023-04-08T01:48:19.143Z,100877.84
2023-04-08T01:50:33.057Z,100887.84
2023-04-08T01:52:46.920Z,100894.52
2023-04-08T01:55:00.972Z,100898.63
2023-04-08T01:57:15.939Z,100900.27
2023-04-08T01:59:34.978Z,100905.70
2023-04-08T02:01:48.766Z,100909.25
2023-04-08T02:04:02.872Z,100916.55
2023-04-08T02:06:15.957Z,100915.34
2023-04-08T02:08:29.781Z,100921.80
2023-04-08T02:10:43.245Z,100922.63
2023-04-08T02:12:56.380Z,100922.95
2023-04-08T02:15:10.139Z,100927.67
2023-04-08T02:17:28.600Z,100926.90
2023-04-08T02:19:49.782Z,100932.33
2023-04-08T02:22:08.648Z,100934.39
2023-04-08T02:24:24.142Z,100934.42
2023-04-08T02:26:40.545Z,100934.64
2023-04-08T02:28:56.696Z,100933.02
2023-04-08T02:31:11.924Z,100934.52
2023-04-08T02:33:28.528Z,100936.17
2023-04-08T02:35:43.667Z,100943.13
2023-04-08T02:37:56.974Z,100944.15
2023-04-08T02:40:29.589Z,100945.65
2023-04-08T02:42:43.006Z,100952.24
2023-04-08T02:44:56.352Z,100957.58
2023-04-08T02:47:10.048Z,100959.02
2023-04-08T02:49:22.959Z,100965.22
2023-04-08T02:51:36.275Z,100964.93
2023-04-08T02:53:49.475Z,100966.01
2023-04-08T02:56:04.267Z,100967.90
2023-04-08T02:58:16.875Z,100969.25
2023-04-08T03:00:30.100Z,100973.02
2023-04-08T03:02:43.073Z,100975.83
2023-04-08T03:04:56.437Z,100973.56
2023-04-08T03:07:09.350Z,100977.48
2023-04-08T03:09:22.112Z,100980.45
2023-04-08T03:11:35.166Z,100987.52
2023-04-08T03:13:47.873Z,100990.95
2023-04-08T03:16:00.661Z,100991.54
2023-04-08T03:18:13.358Z,100996.11
2023-04-08T03:20:26.471Z,101000.77
2023-04-08T03:22:39.671Z,101000.45
2023-04-08T03:24:52.698Z,100999.60
2023-04-08T03:27:05.639Z,101004.83
2023-04-08T03:29:18.590Z,101008.05
2023-04-08T03:31:31.369Z,101008.50
2023-04-08T03:33:44.524Z,101010.04
2023-04-08T03:35:57.653Z,101013.05
2023-04-08T03:38:10.563Z,101014.22
2023-04-08T03:40:23.586Z,101021.02
2023-04-08T03:42:36.585Z,101027.11
2023-04-08T03:44:50.148Z,101034.45
2023-04-08T03:47:03.264Z,101034.98
2023-04-08T03:49:16.309Z,101039.98
2023-04-08T03:51:29.740Z,101045.47
2023-04-08T03:53:42.730Z,101047.91
2023-04-08T03:55:56.918Z,101052.66
2023-04-08T03:58:11.677Z,101057.55
2023-04-08T04:00:24.734Z,101055.58
2023-04-08T04:02:37.735Z,101061.80
2023-04-08T04:04:50.985Z,101061.34
2023-04-08T04:07:03.875Z,101063.75
2023-04-08T04:09:17.962Z,101069.73
2023-04-08T04:11:30.787Z,101070.45
2023-04-08T04:13:43.462Z,101071.16
2023-04-08T04:15:56.158Z,101075.89
2023-04-08T04:18:09.313Z,101075.05
2023-04-08T04:20:23.214Z,101075.14
2023-04-08T04:22:37.058Z,101079.88
2023-04-08T04:24:53.148Z,101081.35
2023-04-08T04:27:06.862Z,101082.28
2023-04-08T04:29:19.531Z,101085.31
2023-04-08T04:31:32.445Z,101090.77
2023-04-08T04:33:45.397Z,101090.35
2023-04-08T04:35:58.340Z,101092.98
2023-04-08T04:38:13.576Z,101095.13
2023-04-08T04:40:26.328Z,101102.04
2023-04-08T04:42:39.109Z,101104.84
2023-04-08T04:44:51.920Z,101102.23
2023-04-08T04:47:04.653Z,101102.40
2023-04-08T04:49:17.207Z,101096.75
2023-04-08T04:51:30.488Z,101098.64
2023-04-08T04:53:43.683Z,101101.29
2023-04-08T04:55:56.422Z,101104.89
2023-04-08T04:58:09.097Z,101111.02
2023-04-08T05:00:22.156Z,101115.85
2023-04-08T05:02:35.050Z,101116.37
2023-04-08T05:04:48.040Z,101118.55
2023-04-08T05:07:02.287Z,101123.31
2023-04-08T05:09:16.665Z,101125.94
2023-04-08T05:11:29.378Z,101116.83
2023-04-08T05:13:42.272Z,101116.77
2023-04-08T05:15:56.259Z,101116.61
2023-04-08T05:18:08.918Z,101119.73
2023-04-08T05:20:21.561Z,101119.89
2023-04-08T05:22:34.239Z,101121.95
2023-04-08T05:24:47.401Z,101119.45
2023-04-08T05:27:00.113Z,101119.89
2023-04-08T05:29:12.883Z,101119.95
2023-04-08T05:31:26.208Z,101120.92
2023-04-08T05:33:38.962Z,101119.80
2023-04-08T05:35:52.319Z,101118.35
2023-04-08T05:38:04.999Z,101114.29
2023-04-08T05:40:18.398Z,101110.66
2023-04-08T05:42:33.280Z,101109.33
2023-04-08T05:44:46.879Z,101111.11
2023-04-08T05:47:01.463Z,101113.02
2023-04-08T05:49:14.192Z,101114.80
2023-04-08T05:51:26.880Z,101117.11
2023-04-08T05:53:39.427Z,101117.71
2023-04-08T05:55:52.515Z,101115.89
2023-04-08T05:58:05.734Z,101120.35
2023-04-08T06:00:19.282Z,101119.09
2023-04-08T06:02:32.437Z,101119.48
2023-04-08T06:04:46.000Z,101120.23
2023-04-08T06:07:00.949Z,101123.64
2023-04-08T06:09:14.292Z,101126.05
2023-04-08T06:11:27.025Z,101125.25
2023-04-08T06:13:40.220Z,101122.45
2023-04-08T06:15:53.313Z,101124.84
2023-04-08T06:18:06.112Z,101127.73
2023-04-08T06:20:20.227Z,101133.50
2023-04-08T06:22:33.437Z,101136.27
2023-04-08T06:24:46.145Z,101136.17
2023-04-08T06:26:59.739Z,101141.58
2023-04-08T06:29:12.813Z,101143.38
2023-04-08T06:31:26.139Z,101137.56
2023-04-08T06:33:39.014Z,101139.30
2023-04-08T06:35:51.966Z,101138.66
2023-04-08T06:38:05.043Z,101141.89
2023-04-08T06:40:18.238Z,101140.25
2023-04-08T06:42:30.988Z,101137.68
2023-04-08T06:45:03.530Z,101136.95
2023-04-08T06:47:16.217Z,101137.24
2023-04-08T06:49:29.964Z,101133.73
2023-04-08T06:51:43.160Z,101136.58
2023-04-08T06:53:55.875Z,101134.05
2023-04-08T06:56:10.203Z,101138.46
2023-04-08T06:58:24.884Z,101140.25
2023-04-08T07:00:38.364Z,101140.29
2023-04-08T07:02:51.688Z,101138.05
2023-04-08T07:05:05.119Z,101141.74
2023-04-08T07:07:19.594Z,101141.36
2023-04-08T07:09:32.764Z,101138.58
2023-04-08T07:11:46.477Z,101135.81
2023-04-08T07:13:59.844Z,101140.14
2023-04-08T07:16:13.457Z,101146.41
2023-04-08T07:18:27.420Z,101143.10
2023-04-08T07:20:43.145Z,101144.95
2023-04-08T07:22:56.453Z,101146.36
2023-04-08T07:25:10.688Z,101142.42
2023-04-08T07:27:23.480Z,101140.46
2023-04-08T07:29:37.075Z,101140.36
2023-04-08T07:31:51.004Z,101142.66
2023-04-08T07:34:03.753Z,101152.83
2023-04-08T07:36:19.418Z,101151.27
2023-04-08T07:38:32.823Z,101150.30
2023-04-08T07:40:45.403Z,101149.46
2023-04-08T07:42:58.023Z,101147.33
2023-04-08T07:45:11.718Z,101144.25
2023-04-08T07:47:24.313Z,101141.23
2023-04-08T07:49:37.806Z,101139.23
2023-04-08T07:51:50.307Z,101136.21
2023-04-08T07:54:04.174Z,101134.70
2023-04-08T07:56:21.195Z,101133.42
2023-04-08T07:58:35.040Z,101142.06
2023-04-08T08:00:48.764Z,101140.86
2023-04-08T08:03:01.871Z,101141.44
2023-04-08T08:05:15.529Z,101144.73
2023-04-08T08:07:28.805Z,101142.91
2023-04-08T08:09:41.875Z,101138.63
2023-04-08T08:11:55.302Z,101140.07
2023-04-08T08:14:09.042Z,101137.13
2023-04-08T08:16:22.098Z,101127.78
2023-04-08T08:18:34.836Z,101127.63
2023-04-08T08:20:47.720Z,101130.17
2023-04-08T08:23:00.947Z,101128.02
2023-04-08T08:25:14.614Z,101129.48
2023-04-08T08:27:27.356Z,101130.77
2023-04-08T08:29:42.333Z,101134.30
2023-04-08T08:31:55.910Z,101131.84
2023-04-08T08:34:09.312Z,101130.85
2023-04-08T08:36:22.405Z,101126.11
2023-04-08T08:38:35.248Z,101127.42
2023-04-08T08:40:48.272Z,101130.86
2023-04-08T08:43:02.701Z,101128.24
2023-04-08T08:45:16.268Z,101126.55
2023-04-08T08:47:29.216Z,101127.25
2023-04-08T08:49:42.751Z,101131.64
2023-04-08T08:51:57.822Z,101133.37
2023-04-08T08:54:11.861Z,101136.39
2023-04-08T08:56:25.701Z,101139.44
2023-04-08T08:58:40.187Z,101142.91
2023-04-08T09:00:53.837Z,101146.60
2023-04-08T09:03:21.191Z,101145.98
2023-04-08T09:05:36.979Z,101148.66
2023-04-08T09:07:50.289Z,101148.52
2023-04-08T09:10:05.444Z,101151.13
2023-04-08T09:12:18.585Z,101150.80
2023-04-08T09:14:31.391Z,101154.42
2023-04-08T09:16:48.720Z,101155.96
2023-04-08T09:19:11.499Z,101153.08
2023-04-08T09:21:28.585Z,101157.65
2023-04-08T09:23:49.262Z,101156.48
2023-04-08T09:26:10.315Z,101156.94
2023-04-08T09:28:27.327Z,101158.73
2023-04-08T09:30:40.219Z,101157.27
2023-04-08T09:32:56.690Z,101154.62
2023-04-08T09:35:10.455Z,101154.93
2023-04-08T09:37:23.133Z,101151.74
2023-04-08T09:39:37.040Z,101151.70
2023-04-08T09:41:51.669Z,101146.96
2023-04-08T09:44:06.100Z,101143.91
2023-04-08T09:46:20.394Z,101143.33
2023-04-08T09:48:39.821Z,101141.89
2023-04-08T09:50:54.246Z,101144.70
2023-04-08T09:53:23.471Z,101146.83
2023-04-08T09:55:39.499Z,101147.83
2023-04-08T09:58:02.385Z,101151.04
2023-04-08T10:00:19.393Z,101139.34
2023-04-08T10:02:42.096Z,101145.54
2023-04-08T10:04:58.303Z,101143.33
2023-04-08T10:07:13.094Z,101145.67
2023-04-08T10:09:26.501Z,101138.55
2023-04-08T10:11:40.047Z,101139.70
2023-04-08T10:13:53.447Z,101139.94
2023-04-08T10:16:25.712Z,101140.59
2023-04-08T10:18:39.585Z,101136.00
2023-04-08T10:20:52.727Z,101127.30
2023-04-08T10:23:05.677Z,101120.81
2023-04-08T10:25:37.806Z,101120.36
2023-04-08T10:27:51.085Z,101115.61
2023-04-08T10:30:03.704Z,101123.83
2023-04-08T10:32:33.801Z,101125.19
2023-04-08T10:34:57.228Z,101129.77
2023-04-08T10:37:11.879Z,101140.27
2023-04-08T10:39:25.374Z,101135.14
2023-04-08T10:41:38.137Z,101135.14
2023-04-08T10:43:53.423Z,101135.33
2023-04-08T10:46:06.235Z,101136.39
2023-04-08T10:48:24.158Z,101136.64
2023-04-08T10:50:36.777Z,101135.94
2023-04-08T10:52:55.014Z,101139.23
2023-04-08T10:55:09.734Z,101143.02
2023-04-08T10:57:29.759Z,101143.38
2023-04-08T10:59:42.816Z,101142.86
2023-04-08T11:01:56.563Z,101145.44
2023-04-08T11:04:16.767Z,101150.38
2023-04-08T11:06:29.515Z,101151.38
2023-04-08T11:08:43.867Z,101150.27
2023-04-08T11:10:58.206Z,101148.49
2023-04-08T11:13:12.712Z,101149.14
2023-04-08T11:15:26.441Z,101150.84
2023-04-08T11:17:40.641Z,101149.40
2023-04-08T11:19:53.525Z,101156.02
2023-04-08T11:22:06.732Z,101154.90
2023-04-08T11:24:19.809Z,101159.05
2023-04-08T11:26:33.714Z,101161.35
2023-04-08T11:28:47.587Z,101160.91
2023-04-08T11:31:01.034Z,101159.69
2023-04-08T11:33:13.802Z,101156.92
2023-04-08T11:35:26.548Z,101157.58
2023-04-08T11:37:45.912Z,101160.86
2023-04-08T11:40:00.988Z,101158.61
2023-04-08T11:42:29.334Z,101161.23
2023-04-08T11:44:42.448Z,101161.60
2023-04-08T11:47:00.458Z,101166.20
2023-04-08T11:49:14.407Z,101173.85
2023-04-08T11:51:28.295Z,101171.98
2023-04-08T11:53:41.276Z,101169.01
2023-04-08T11:55:54.244Z,101165.66
2023-04-08T11:58:10.474Z,101162.94
2023-04-08T12:00:24.068Z,101162.97
2023-04-08T12:02:37.260Z,101162.63
2023-04-08T12:04:50.321Z,101161.55
2023-04-08T12:07:03.113Z,101157.23
2023-04-08T12:09:16.166Z,101161.02
2023-04-08T12:11:29.429Z,101159.52
2023-04-08T12:13:42.881Z,101149.48
2023-04-08T12:15:56.161Z,101145.77
2023-04-08T12:18:09.431Z,101141.32
2023-04-08T12:20:22.389Z,101141.45
2023-04-08T12:22:35.587Z,101147.25
2023-04-08T12:24:48.553Z,101146.22
2023-04-08T12:27:03.667Z,101144.94
2023-04-08T12:29:16.270Z,101151.83
2023-04-08T12:31:29.465Z,101153.40
2023-04-08T12:33:42.474Z,101144.84
2023-04-08T12:35:56.124Z,101142.98
2023-04-08T12:38:09.272Z,101137.74
2023-04-08T12:40:22.628Z,101134.80
2023-04-08T12:42:36.124Z,101134.10
2023-04-08T12:44:53.056Z,101131.21
2023-04-08T12:47:06.046Z,101132.30
2023-04-08T12:49:19.233Z,101130.83
2023-04-08T12:51:33.392Z,101125.93
2023-04-08T12:53:46.402Z,101129.61
2023-04-08T12:56:00.105Z,101128.98
2023-04-08T12:58:13.367Z,101131.30
2023-04-08T13:00:26.013Z,101132.98
2023-04-08T13:02:38.989Z,101133.04
2023-04-08T13:04:53.378Z,101133.70
2023-04-08T13:07:06.192Z,101134.77
2023-04-08T13:09:19.552Z,101128.36
2023-04-08T13:11:32.260Z,101123.75
2023-04-08T13:13:45.112Z,101126.52
2023-04-08T13:15:58.160Z,101127.23
2023-04-08T13:18:10.954Z,101126.73
2023-04-08T13:20:26.807Z,101126.08
2023-04-08T13:22:39.370Z,101127.17
2023-04-08T13:24:52.457Z,101131.47
2023-04-08T13:27:05.388Z,101124.91
2023-04-08T13:29:18.032Z,101129.91
2023-04-08T13:31:31.016Z,101138.08
2023-04-08T13:33:43.681Z,101139.96
2023-04-08T13:35:56.591Z,101145.21
2023-04-08T13:38:09.625Z,101148.52
2023-04-08T13:40:22.465Z,101156.16
2023-04-08T13:42:35.346Z,101156.23
2023-04-08T13:44:47.799Z,101158.30
2023-04-08T13:47:00.622Z,101160.98
2023-04-08T13:49:13.003Z,101161.55
2023-04-08T13:51:25.517Z,101163.90
2023-04-08T13:53:38.052Z,101164.92
2023-04-08T13:55:56.175Z,101168.48
2023-04-08T13:58:21.202Z,101165.98
2023-04-08T14:00:36.650Z,101160.58
2023-04-08T14:02:49.579Z,101165.65
2023-04-08T14:05:02.410Z,101173.61
2023-04-08T14:07:15.407Z,101180.38
2023-04-08T14:09:28.345Z,101178.80
2023-04-08T14:11:41.153Z,101179.77
2023-04-08T14:13:54.203Z,101183.38
2023-04-08T14:16:08.424Z,101186.33
2023-04-08T14:18:21.840Z,101187.98
2023-04-08T14:20:36.563Z,101189.72
2023-04-08T14:22:49.614Z,101192.88
2023-04-08T14:25:02.516Z,101191.34
2023-04-08T14:27:15.364Z,101194.19
2023-04-08T14:29:28.471Z,101197.64
2023-04-08T14:31:41.546Z,101199.49
2023-04-08T14:33:54.504Z,101199.33
2023-04-08T14:36:07.684Z,101197.63
2023-04-08T14:38:21.731Z,101200.34
2023-04-08T14:40:36.525Z,101201.59
2023-04-08T14:42:51.028Z,101204.75
2023-04-08T14:45:04.526Z,101210.48
2023-04-08T14:47:17.320Z,101212.98
2023-04-08T14:49:30.757Z,101216.04
2023-04-08T14:51:44.179Z,101218.17
2023-04-08T14:53:56.829Z,101221.00
2023-04-08T14:56:11.082Z,101228.16
2023-04-08T14:58:23.529Z,101233.30
2023-04-08T15:00:37.480Z,101233.73
2023-04-08T15:02:50.576Z,101231.13
2023-04-08T15:05:03.291Z,101229.63
2023-04-08T15:07:16.392Z,101233.11
2023-04-08T15:09:29.235Z,101234.46
2023-04-08T15:11:42.064Z,101230.62
2023-04-08T15:13:55.174Z,101234.14
2023-04-08T15:16:08.187Z,101229.13
2023-04-08T15:18:20.988Z,101233.80
2023-04-08T15:20:34.129Z,101234.66
2023-04-08T15:22:47.828Z,101237.99
2023-04-08T15:25:01.132Z,101238.10
2023-04-08T15:27:14.033Z,101236.11
2023-04-08T15:29:28.233Z,101232.96
2023-04-08T15:31:41.462Z,101238.36
2023-04-08T15:33:55.238Z,101242.06
2023-04-08T15:36:08.395Z,101240.98
2023-04-08T15:38:21.581Z,101244.01
2023-04-08T15:40:35.989Z,101244.67
2023-04-08T15:42:49.283Z,101245.92
2023-04-08T15:45:02.559Z,101249.27
2023-04-08T15:47:15.628Z,101262.45
2023-04-08T15:49:28.641Z,101263.50
2023-04-08T15:51:45.531Z,101262.68
2023-04-08T15:53:58.681Z,101258.23
2023-04-08T15:56:15.240Z,101258.92
2023-04-08T15:58:28.619Z,101262.41
2023-04-08T16:00:41.799Z,101258.02
2023-04-08T16:02:55.691Z,101256.31
2023-04-08T16:05:08.700Z,101260.27
2023-04-08T16:07:21.432Z,101266.83
2023-04-08T16:09:34.220Z,101271.40
2023-04-08T16:11:47.607Z,101267.68
2023-04-08T16:14:00.576Z,101269.02
2023-04-08T16:16:13.784Z,101272.55
2023-04-08T16:18:27.967Z,101271.11
2023-04-08T16:20:42.996Z,101265.78
2023-04-08T16:22:56.201Z,101262.44
2023-04-08T16:25:10.435Z,101257.04
2023-04-08T16:27:23.130Z,101256.20
2023-04-08T16:29:36.041Z,101259.70
2023-04-08T16:31:49.924Z,101258.98
2023-04-08T16:34:04.292Z,101261.39
2023-04-08T16:36:17.011Z,101255.70
2023-04-08T16:38:30.577Z,101253.95
2023-04-08T16:40:43.451Z,101251.79
2023-04-08T16:42:56.136Z,101247.33
2023-04-08T16:45:11.697Z,101249.50
2023-04-08T16:47:24.969Z,101252.06
2023-04-08T16:49:37.999Z,101252.09
2023-04-08T16:51:50.841Z,101257.63
2023-04-08T16:54:04.474Z,101256.63
2023-04-08T16:56:20.943Z,101254.80
2023-04-08T16:58:33.887Z,101258.44
2023-04-08T17:00:47.809Z,101266.40
2023-04-08T17:03:01.829Z,101277.11
2023-04-08T17:05:15.440Z,101270.30
2023-04-08T17:07:29.259Z,101269.65
2023-04-08T17:09:42.500Z,101279.23
2023-04-08T17:11:56.844Z,101289.66
2023-04-08T17:14:09.506Z,101292.95
2023-04-08T17:16:22.640Z,101292.55
2023-04-08T17:18:35.580Z,101295.45
2023-04-08T17:20:48.522Z,101297.14
2023-04-08T17:23:01.792Z,101297.46
2023-04-08T17:25:16.746Z,101298.61
2023-04-08T17:27:30.090Z,101303.77
2023-04-08T17:29:43.532Z,101309.60
2023-04-08T17:31:56.386Z,101310.27
2023-04-08T17:34:09.536Z,101305.30
2023-04-08T17:36:22.633Z,101303.78
2023-04-08T17:38:36.816Z,101310.66
2023-04-08T17:40:49.804Z,101316.70
2023-04-08T17:43:03.759Z,101323.02
2023-04-08T17:45:17.492Z,101316.70
2023-04-08T17:47:30.401Z,101313.05
2023-04-08T17:49:43.762Z,101310.66
2023-04-08T17:51:57.281Z,101317.54
2023-04-08T17:54:10.177Z,101319.04
2023-04-08T17:56:23.244Z,101321.89
2023-04-08T17:58:35.811Z,101320.27
2023-04-08T18:00:48.704Z,101325.48
2023-04-08T18:03:02.152Z,101327.22
2023-04-08T18:05:17.570Z,101326.52
2023-04-08T18:07:30.047Z,101320.78
2023-04-08T18:09:43.487Z,101316.35
2023-04-08T18:11:56.676Z,101323.35
2023-04-08T18:14:09.655Z,101322.34
2023-04-08T18:16:26.464Z,101329.07
2023-04-08T18:18:42.568Z,101327.63
2023-04-08T18:20:55.545Z,101326.76
2023-04-08T18:23:08.467Z,101325.08
2023-04-08T18:25:23.500Z,101315.19
2023-04-08T18:27:37.089Z,101323.00
2023-04-08T18:29:50.199Z,101327.95
2023-04-08T18:32:02.671Z,101329.38
2023-04-08T18:34:15.376Z,101327.91
2023-04-08T18:36:30.949Z,101319.30
2023-04-08T18:38:45.746Z,101315.14
2023-04-08T18:40:58.491Z,101321.20
2023-04-08T18:43:13.141Z,101324.84
2023-04-08T18:45:25.887Z,101337.36
2023-04-08T18:47:38.857Z,101331.75
2023-04-08T18:49:51.560Z,101330.48
2023-04-08T18:52:05.106Z,101331.66
2023-04-08T18:54:18.909Z,101335.32
2023-04-08T18:56:31.594Z,101335.59
2023-04-08T18:58:44.636Z,101337.38
2023-04-08T19:00:58.798Z,101338.95
2023-04-08T19:03:12.028Z,101340.69
2023-04-08T19:05:25.255Z,101341.69
2023-04-08T19:07:38.051Z,101349.52
2023-04-08T19:09:50.856Z,101348.27
2023-04-08T19:12:03.614Z,101347.55
2023-04-08T19:14:16.590Z,101348.77
2023-04-08T19:16:29.904Z,101351.13
2023-04-08T19:18:42.705Z,101350.86
2023-04-08T19:20:55.611Z,101349.38
2023-04-08T19:23:08.833Z,101348.55
2023-04-08T19:25:21.711Z,101348.74
2023-04-08T19:27:34.854Z,101350.38
2023-04-08T19:29:48.859Z,101352.04
2023-04-08T19:32:01.923Z,101351.73
2023-04-08T19:34:14.888Z,101347.58
2023-04-08T19:36:27.430Z,101344.67
2023-04-08T19:38:40.178Z,101335.43
2023-04-08T19:40:54.171Z,101335.82
2023-04-08T19:43:06.975Z,101339.56
2023-04-08T19:45:21.018Z,101342.45
2023-04-08T19:47:34.150Z,101348.25
2023-04-08T19:49:47.465Z,101347.28
2023-04-08T19:52:00.311Z,101344.20
2023-04-08T19:54:15.235Z,101340.80
2023-04-08T19:56:29.349Z,101345.67
2023-04-08T19:58:42.032Z,101341.15
2023-04-08T20:00:56.086Z,101340.30
2023-04-08T20:03:10.249Z,101339.86
2023-04-08T20:05:24.313Z,101337.46
2023-04-08T20:07:36.867Z,101340.52
2023-04-08T20:09:49.588Z,101336.33
2023-04-08T20:12:05.633Z,101339.75
2023-04-08T20:14:18.237Z,101335.13
2023-04-08T20:16:31.805Z,101329.61
2023-04-08T20:18:44.924Z,101327.88
2023-04-08T20:20:57.862Z,101321.15
2023-04-08T20:23:11.681Z,101328.66
2023-04-08T20:25:24.678Z,101330.11
2023-04-08T20:27:37.702Z,101332.80
2023-04-08T20:29:50.471Z,101335.77
2023-04-08T20:32:04.137Z,101334.10
2023-04-08T20:34:17.199Z,101331.96
2023-04-08T20:36:30.064Z,101334.38
2023-04-08T20:38:43.628Z,101332.45
2023-04-08T20:40:56.725Z,101329.52
2023-04-08T20:43:09.538Z,101329.98
2023-04-08T20:45:22.323Z,101328.77
2023-04-08T20:47:35.235Z,101324.47
2023-04-08T20:49:48.459Z,101326.50
2023-04-08T20:52:01.219Z,101326.70
2023-04-08T20:54:14.204Z,101330.23
2023-04-08T20:56:27.501Z,101331.86
2023-04-08T20:58:40.363Z,101322.86
2023-04-08T21:00:53.448Z,101324.48
2023-04-08T21:03:07.236Z,101323.23
2023-04-08T21:05:20.438Z,101322.38
2023-04-08T21:07:33.176Z,101314.13
2023-04-08T21:09:46.354Z,101316.72
2023-04-08T21:11:59.665Z,101319.27
2023-04-08T21:14:12.415Z,101308.73
2023-04-08T21:16:30.123Z,101304.91
2023-04-08T21:18:44.045Z,101309.78
2023-04-08T21:20:57.220Z,101315.23
2023-04-08T21:23:10.421Z,101311.40
2023-04-08T21:25:23.596Z,101308.60
2023-04-08T21:27:36.887Z,101306.05
2023-04-08T21:29:49.909Z,101295.33
2023-04-08T21:32:03.803Z,101298.98
2023-04-08T21:34:17.536Z,101296.41
2023-04-08T21:36:31.926Z,101301.79
2023-04-08T21:38:44.960Z,101306.88
2023-04-08T21:40:57.438Z,101305.54
2023-04-08T21:43:09.937Z,101304.16
2023-04-08T21:45:23.186Z,101307.31
2023-04-08T21:47:37.244Z,101311.84
2023-04-08T21:49:51.248Z,101308.80
2023-04-08T21:52:04.308Z,101310.08
2023-04-08T21:54:17.468Z,101306.86
2023-04-08T21:56:31.524Z,101305.00
2023-04-08T21:58:44.570Z,101300.55
2023-04-08T22:00:57.589Z,101293.05
2023-04-08T22:03:11.798Z,101294.52
2023-04-08T22:05:25.391Z,101299.94
2023-04-08T22:07:40.935Z,101296.66
2023-04-08T22:09:53.896Z,101294.67
2023-04-08T22:12:06.819Z,101293.04
2023-04-08T22:14:19.552Z,101292.31
2023-04-08T22:16:33.168Z,101290.75
2023-04-08T22:18:45.900Z,101290.73
2023-04-08T22:20:58.786Z,101293.48
2023-04-08T22:23:11.762Z,101293.73
2023-04-08T22:25:24.775Z,101296.10
2023-04-08T22:27:38.485Z,101301.23
2023-04-08T22:29:51.631Z,101302.45
2023-04-08T22:32:04.542Z,101302.10
2023-04-08T22:34:17.132Z,101300.17
2023-04-08T22:36:30.170Z,101300.75
2023-04-08T22:38:42.922Z,101303.17
2023-04-08T22:40:56.848Z,101306.89
2023-04-08T22:43:09.483Z,101314.48
2023-04-08T22:45:22.577Z,101318.98
2023-04-08T22:47:36.108Z,101316.23
2023-04-08T22:49:49.179Z,101327.89
2023-04-08T22:52:02.388Z,101319.98
2023-04-08T22:54:15.080Z,101316.85
2023-04-08T22:56:29.824Z,101313.93
2023-04-08T22:58:42.418Z,101302.93
2023-04-08T23:00:55.222Z,101289.21
2023-04-08T23:03:07.864Z,101296.39
2023-04-08T23:05:20.740Z,101298.34
2023-04-08T23:07:33.919Z,101300.55
2023-04-08T23:09:46.592Z,101294.48
2023-04-08T23:11:59.430Z,101295.20
2023-04-08T23:14:12.705Z,101293.70
2023-04-08T23:16:25.795Z,101298.45
2023-04-08T23:18:38.680Z,101309.98
2023-04-08T23:20:56.584Z,101305.87
2023-04-08T23:23:09.113Z,101311.76
2023-04-08T23:25:21.975Z,101316.52
2023-04-08T23:27:37.200Z,101316.06
2023-04-08T23:29:50.124Z,101317.96
2023-04-08T23:32:02.754Z,101313.25
2023-04-08T23:34:15.471Z,101303.19
2023-04-08T23:36:28.671Z,101306.77
2023-04-08T23:38:42.018Z,101311.13
2023-04-08T23:40:55.723Z,101313.92
2023-04-08T23:43:08.560Z,101316.68
2023-04-08T23:45:21.375Z,101320.46
2023-04-08T23:47:34.194Z,101303.16
2023-04-08T23:49:49.989Z,101292.80
2023-04-08T23:52:02.533Z,101296.45
2023-04-08T23:54:15.107Z,101302.11
2023-04-08T23:56:28.413Z,101307.46
2023-04-08T23:58:41.711Z,101314.70
